KAVL/AVL METAR and TAF weather

Enter ICAO airport designator
Station Type Date Time Source
KAVL METAR 2020/01/23 14:54 UTC NOAA

KAVL 231454Z 13004KT 10SM SCT110 01/M09 A3031 RMK AO2 SLP276 T00111089 50008


Station Type Date Time Source
KAVL Decoded METAR 2020/01/23 14:54 UTC NOAA

ASHEVILLE REGIONAL AIRPORT, NC, United States (KAVL) 35-26N 82-32W 670M
Jan 23, 2020 - 09:54 AM EST / 2020.01.23 1454 UTC
Wind: from the SE (130 degrees) at 5 MPH (4 KT):0
Visibility: 10 mile(s):0
Sky conditions: partly cloudy
Temperature: 34.0 F (1.1 C)
Windchill: 30 F (-1 C):1
Dew Point: 16.0 F (-8.9 C)
Relative Humidity: 47%
Pressure (altimeter): 30.31 in. Hg (1026 hPa)
Pressure tendency: 0.02 inches (0.8 hPa) higher than three hours ago
ob: KAVL 231454Z 13004KT 10SM SCT110 01/M09 A3031 RMK AO2 SLP276 T00111089 50008
cycle: 15

Station Type Date Time Source
KAVL TAF 2020/01/23 12:40 UTC NOAA

TAF KAVL 231138Z 2312/2412 VRB02KT P6SM OVC150
FM231500 15003KT P6SM OVC120
FM240300 15004KT P6SM VCSH OVC045
FM240500 14004KT P6SM -RA OVC018
FM240700 16005KT 5SM -RA BR OVC009

Example: see airport list